Time,TemperatureF,DewpointF,PressureIn,WindDirection,WindDirectionDegrees,WindSpeedMPH,WindSpeedGustMPH,Humidity,HourlyPrecipIn,Conditions,Clouds,dailyrainin,SoftwareType,DateUTC
2013-08-25 00:00:00,74.8,69.3,29.82,West,270,2.2,-999.0,83,-99.99,,,0.00,Acu-Link.com,2013-08-25 05:00:00,
2013-08-25 00:15:00,74.3,69.1,29.82,SSE,157,3.2,-999.0,84,-99.99,,,0.00,Acu-Link.com,2013-08-25 05:15:00,
2013-08-25 00:30:00,74.1,68.9,29.81,SSE,157,2.7,-999.0,84,-99.99,,,0.00,Acu-Link.com,2013-08-25 05:30:00,
2013-08-25 00:46:00,73.8,68.7,29.82,SSE,157,2.7,-999.0,84,-99.99,,,0.00,Acu-Link.com,2013-08-25 05:46:00,
2013-08-25 01:01:00,73.6,68.5,29.83,South,180,2.2,-999.0,84,-99.99,,,0.00,Acu-Link.com,2013-08-25 06:01:00,
2013-08-25 01:16:00,73.0,67.9,29.83,SSE,157,2.2,-999.0,84,-99.99,,,0.00,Acu-Link.com,2013-08-25 06:16:00,
2013-08-25 01:31:00,72.9,67.4,29.83,SSE,157,3.7,-999.0,83,-99.99,,,0.00,Acu-Link.com,2013-08-25 06:31:00,
2013-08-25 01:47:00,72.7,67.2,29.83,SSE,157,3.7,-999.0,83,-99.99,,,0.00,Acu-Link.com,2013-08-25 06:47:00,
2013-08-25 02:02:00,72.5,67.0,29.84,SE,135,3.2,-999.0,83,-99.99,,,0.00,Acu-Link.com,2013-08-25 07:02:00,
2013-08-25 02:17:00,72.3,67.2,29.84,SE,135,3.2,-999.0,84,-99.99,,,0.00,Acu-Link.com,2013-08-25 07:17:00,
2013-08-25 02:32:00,72.1,67.0,29.84,SSE,157,2.2,-999.0,84,-99.99,,,0.00,Acu-Link.com,2013-08-25 07:32:00,
2013-08-25 02:47:00,72.1,67.0,29.85,SSE,157,2.7,-999.0,84,-99.99,,,0.00,Acu-Link.com,2013-08-25 07:47:00,
2013-08-25 03:03:00,72.1,67.0,29.85,SE,135,2.2,-999.0,84,-99.99,,,0.00,Acu-Link.com,2013-08-25 08:03:00,
2013-08-25 03:18:00,72.1,67.0,29.85,SE,135,3.2,-999.0,84,-99.99,,,0.00,Acu-Link.com,2013-08-25 08:18:00,
2013-08-25 03:34:00,72.0,66.9,29.85,SSE,157,2.7,-999.0,84,-99.99,,,0.00,Acu-Link.com,2013-08-25 08:34:00,
2013-08-25 03:49:00,72.0,66.9,29.85,SSE,157,2.2,-999.0,84,-99.99,,,0.00,Acu-Link.com,2013-08-25 08:49:00,
2013-08-25 04:04:00,71.6,66.5,29.86,SSE,157,2.7,-999.0,84,-99.99,,,0.00,Acu-Link.com,2013-08-25 09:04:00,
2013-08-25 04:19:00,71.2,66.5,29.86,SSE,157,3.7,-999.0,85,-99.99,,,0.00,Acu-Link.com,2013-08-25 09:19:00,
2013-08-25 04:34:00,70.5,66.1,29.87,SSE,157,2.7,-999.0,86,-99.99,,,0.00,Acu-Link.com,2013-08-25 09:34:00,
2013-08-25 04:49:00,70.2,65.8,29.87,SSE,157,2.2,-999.0,86,-99.99,,,0.00,Acu-Link.com,2013-08-25 09:49:00,
2013-08-25 05:05:00,70.0,65.9,29.87,SSE,157,2.7,-999.0,87,-99.99,,,0.00,Acu-Link.com,2013-08-25 10:05:00,
2013-08-25 05:20:00,69.8,65.7,29.86,SSE,157,3.2,-999.0,87,-99.99,,,0.00,Acu-Link.com,2013-08-25 10:20:00,
2013-08-25 05:35:00,70.0,65.6,29.87,SSE,157,1.7,-999.0,86,-99.99,,,0.00,Acu-Link.com,2013-08-25 10:35:00,
2013-08-25 05:51:00,69.6,65.2,29.87,SSE,157,2.7,-999.0,86,-99.99,,,0.00,Acu-Link.com,2013-08-25 10:51:00,
2013-08-25 06:06:00,69.6,65.2,29.88,SSE,157,2.7,-999.0,86,-99.99,,,0.00,Acu-Link.com,2013-08-25 11:06:00,
2013-08-25 06:21:00,69.1,65.1,29.88,SSE,157,2.7,-999.0,87,-99.99,,,0.00,Acu-Link.com,2013-08-25 11:21:00,
2013-08-25 06:36:00,69.1,65.1,29.89,SSE,157,2.7,-999.0,87,-99.99,,,0.00,Acu-Link.com,2013-08-25 11:36:00,
2013-08-25 06:51:00,69.3,65.3,29.89,North,0,3.2,-999.0,87,-99.99,,,0.00,Acu-Link.com,2013-08-25 11:51:00,
2013-08-25 07:07:00,69.6,65.2,29.89,North,0,2.7,-999.0,86,-99.99,,,0.00,Acu-Link.com,2013-08-25 12:07:00,
2013-08-25 07:22:00,70.2,65.5,29.90,SSE,157,3.2,-999.0,85,-99.99,,,0.00,Acu-Link.com,2013-08-25 12:22:00,
2013-08-25 07:37:00,72.0,65.8,29.89,SSE,157,1.7,-999.0,81,-99.99,,,0.00,Acu-Link.com,2013-08-25 12:37:00,
2013-08-25 07:52:00,75.4,66.9,29.90,SSE,157,3.7,-999.0,75,-99.99,,,0.00,Acu-Link.com,2013-08-25 12:52:00,
2013-08-25 08:08:00,77.0,67.7,29.90,SSE,157,3.2,-999.0,73,-99.99,,,0.00,Acu-Link.com,2013-08-25 13:08:00,
2013-08-25 08:23:00,77.9,67.7,29.90,SSE,157,4.7,-999.0,71,-99.99,,,0.00,Acu-Link.com,2013-08-25 13:23:00,
2013-08-25 08:38:00,79.0,68.4,29.90,South,180,4.7,-999.0,70,-99.99,,,0.00,Acu-Link.com,2013-08-25 13:38:00,
2013-08-25 08:54:00,80.8,69.2,29.89,SE,135,5.3,-999.0,68,-99.99,,,0.00,Acu-Link.com,2013-08-25 13:54:00,
2013-08-25 09:09:00,82.0,69.0,29.89,SSE,157,5.3,-999.0,65,-99.99,,,0.00,Acu-Link.com,2013-08-25 14:09:00,
2013-08-25 09:24:00,85.6,70.1,29.88,SSW,202,4.2,-999.0,60,-99.99,,,0.00,Acu-Link.com,2013-08-25 14:24:00,
2013-08-25 09:40:00,89.6,70.7,29.88,SW,225,2.7,-999.0,54,-99.99,,,0.00,Acu-Link.com,2013-08-25 14:40:00,
2013-08-25 09:55:00,84.0,70.0,29.88,SE,135,4.7,-999.0,63,-99.99,,,0.00,Acu-Link.com,2013-08-25 14:55:00,
2013-08-25 10:10:00,85.5,70.5,29.89,West,270,2.7,-999.0,61,-99.99,,,0.00,Acu-Link.com,2013-08-25 15:10:00,
2013-08-25 10:25:00,86.0,70.5,29.88,SSE,157,5.3,-999.0,60,-99.99,,,0.00,Acu-Link.com,2013-08-25 15:25:00,
2013-08-25 10:41:00,86.2,70.7,29.87,West,270,3.7,-999.0,60,-99.99,,,0.00,Acu-Link.com,2013-08-25 15:41:00,
2013-08-25 10:56:00,87.3,71.2,29.87,SSE,157,6.3,-999.0,59,-99.99,,,0.00,Acu-Link.com,2013-08-25 15:56:00,
2013-08-25 11:11:00,87.8,71.1,29.88,South,180,5.3,-999.0,58,-99.99,,,0.00,Acu-Link.com,2013-08-25 16:11:00,
2013-08-25 11:26:00,88.5,71.3,29.88,South,180,3.7,-999.0,57,-99.99,,,0.00,Acu-Link.com,2013-08-25 16:26:00,
2013-08-25 11:42:00,89.1,71.3,29.87,SE,135,5.8,-999.0,56,-99.99,,,0.00,Acu-Link.com,2013-08-25 16:42:00,
2013-08-25 11:57:00,90.1,71.2,29.86,South,180,3.2,-999.0,54,-99.99,,,0.00,Acu-Link.com,2013-08-25 16:57:00,
2013-08-25 12:12:00,90.3,71.4,29.85,SSW,202,3.7,-999.0,54,-99.99,,,0.00,Acu-Link.com,2013-08-25 17:12:00,
2013-08-25 12:27:00,91.4,71.8,29.85,SSE,157,6.3,-999.0,53,-99.99,,,0.00,Acu-Link.com,2013-08-25 17:27:00,
2013-08-25 12:42:00,92.3,72.1,29.84,SW,225,4.2,-999.0,52,-99.99,,,0.00,Acu-Link.com,2013-08-25 17:42:00,
2013-08-25 12:58:00,93.2,71.2,29.83,South,180,3.7,-999.0,49,-99.99,,,0.00,Acu-Link.com,2013-08-25 17:58:00,
2013-08-25 13:13:00,93.7,71.6,29.83,SSE,157,2.2,-999.0,49,-99.99,,,0.00,Acu-Link.com,2013-08-25 18:13:00,
2013-08-25 13:28:00,93.7,72.2,29.82,West,270,2.7,-999.0,50,-99.99,,,0.00,Acu-Link.com,2013-08-25 18:28:00,
2013-08-25 13:43:00,93.4,71.9,29.81,South,180,9.9,-999.0,50,-99.99,,,0.00,Acu-Link.com,2013-08-25 18:43:00,
2013-08-25 13:58:00,93.4,72.5,29.82,SSE,157,4.2,-999.0,51,-99.99,,,0.00,Acu-Link.com,2013-08-25 18:58:00,
2013-08-25 14:14:00,95.0,72.2,29.81,South,180,7.8,-999.0,48,-99.99,,,0.00,Acu-Link.com,2013-08-25 19:14:00,
2013-08-25 14:29:00,95.9,71.7,29.80,SSE,157,4.7,-999.0,46,-99.99,,,0.00,Acu-Link.com,2013-08-25 19:29:00,
2013-08-25 14:44:00,94.6,71.2,29.81,South,180,6.3,-999.0,47,-99.99,,,0.00,Acu-Link.com,2013-08-25 19:44:00,
2013-08-25 14:59:00,95.7,70.9,29.80,West,270,2.7,-999.0,45,-99.99,,,0.00,Acu-Link.com,2013-08-25 19:59:00,
2013-08-25 15:15:00,96.3,70.8,29.80,SSW,202,2.7,-999.0,44,-99.99,,,0.00,Acu-Link.com,2013-08-25 20:15:00,
2013-08-25 15:30:00,96.1,70.6,29.79,SW,225,6.3,-999.0,44,-99.99,,,0.00,Acu-Link.com,2013-08-25 20:30:00,
2013-08-25 15:45:00,94.1,71.4,29.79,South,180,5.3,-999.0,48,-99.99,,,0.00,Acu-Link.com,2013-08-25 20:45:00,
2013-08-25 16:00:00,95.4,71.3,29.79,SSW,202,3.2,-999.0,46,-99.99,,,0.00,Acu-Link.com,2013-08-25 21:00:00,
2013-08-25 16:15:00,95.5,71.4,29.79,SW,225,6.3,-999.0,46,-99.99,,,0.00,Acu-Link.com,2013-08-25 21:15:00,
2013-08-25 16:31:00,94.3,70.3,29.79,SSE,157,5.3,-999.0,46,-99.99,,,0.00,Acu-Link.com,2013-08-25 21:31:00,
2013-08-25 16:46:00,93.9,69.9,29.78,SSE,157,4.7,-999.0,46,-99.99,,,0.00,Acu-Link.com,2013-08-25 21:46:00,
2013-08-25 17:01:00,93.7,69.7,29.79,SSE,157,9.9,-999.0,46,-99.99,,,0.00,Acu-Link.com,2013-08-25 22:01:00,
2013-08-25 17:16:00,93.7,70.4,29.79,South,180,6.8,-999.0,47,-99.99,,,0.00,Acu-Link.com,2013-08-25 22:16:00,
2013-08-25 17:31:00,92.8,69.6,29.78,SE,135,8.3,-999.0,47,-99.99,,,0.00,Acu-Link.com,2013-08-25 22:31:00,
2013-08-25 17:47:00,92.7,69.5,29.79,SSW,202,5.8,-999.0,47,-99.99,,,0.00,Acu-Link.com,2013-08-25 22:47:00,
2013-08-25 18:02:00,91.8,70.5,29.78,SSE,157,9.9,-999.0,50,-99.99,,,0.00,Acu-Link.com,2013-08-25 23:02:00,
2013-08-25 18:17:00,90.9,71.4,29.78,South,180,7.3,-999.0,53,-99.99,,,0.00,Acu-Link.com,2013-08-25 23:17:00,
2013-08-25 18:32:00,90.0,71.1,29.78,SSW,202,4.2,-999.0,54,-99.99,,,0.00,Acu-Link.com,2013-08-25 23:32:00,
2013-08-25 18:47:00,89.4,70.5,29.78,SSE,157,2.7,-999.0,54,-99.99,,,0.00,Acu-Link.com,2013-08-25 23:47:00,
2013-08-25 19:03:00,88.3,70.1,29.77,SSE,157,4.7,-999.0,55,-99.99,,,0.00,Acu-Link.com,2013-08-26 00:03:00,
2013-08-25 19:18:00,87.4,70.3,29.78,South,180,4.2,-999.0,57,-99.99,,,0.00,Acu-Link.com,2013-08-26 00:18:00,
2013-08-25 19:33:00,86.7,70.1,29.78,SSE,157,2.7,-999.0,58,-99.99,,,0.00,Acu-Link.com,2013-08-26 00:33:00,
2013-08-25 19:48:00,85.6,70.1,29.79,South,180,1.7,-999.0,60,-99.99,,,0.00,Acu-Link.com,2013-08-26 00:48:00,
2013-08-25 20:04:00,84.6,70.6,29.79,SE,135,0.0,-999.0,63,-99.99,,,0.00,Acu-Link.com,2013-08-26 01:04:00,
2013-08-25 20:19:00,82.6,70.5,29.80,SE,135,0.0,-999.0,67,-99.99,,,0.00,Acu-Link.com,2013-08-26 01:19:00,
2013-08-25 20:35:00,81.5,70.3,29.80,SSE,157,2.7,-999.0,69,-99.99,,,0.00,Acu-Link.com,2013-08-26 01:35:00,
2013-08-25 20:50:00,81.0,70.7,29.80,SSE,157,2.7,-999.0,71,-99.99,,,0.00,Acu-Link.com,2013-08-26 01:50:00,
2013-08-25 21:06:00,80.6,70.3,29.81,South,180,2.2,-999.0,71,-99.99,,,0.00,Acu-Link.com,2013-08-26 02:06:00,
2013-08-25 21:22:00,80.1,70.2,29.81,SSW,202,1.7,-999.0,72,-99.99,,,0.00,Acu-Link.com,2013-08-26 02:22:00,
2013-08-25 21:37:00,79.5,70.1,29.81,SSE,157,2.2,-999.0,73,-99.99,,,0.00,Acu-Link.com,2013-08-26 02:37:00,
2013-08-25 21:52:00,79.3,69.9,29.81,SSE,157,3.2,-999.0,73,-99.99,,,0.00,Acu-Link.com,2013-08-26 02:52:00,
2013-08-25 22:07:00,79.3,69.9,29.82,SSE,157,2.2,-999.0,73,-99.99,,,0.00,Acu-Link.com,2013-08-26 03:07:00,
2013-08-25 22:23:00,78.8,69.4,29.82,SSE,157,1.7,-999.0,73,-99.99,,,0.00,Acu-Link.com,2013-08-26 03:23:00,
2013-08-25 22:38:00,77.9,69.3,29.82,SSE,157,2.2,-999.0,75,-99.99,,,0.00,Acu-Link.com,2013-08-26 03:38:00,
2013-08-25 22:53:00,77.7,69.5,29.82,SSE,157,2.2,-999.0,76,-99.99,,,0.00,Acu-Link.com,2013-08-26 03:53:00,
2013-08-25 23:08:00,77.5,69.3,29.83,West,270,2.2,-999.0,76,-99.99,,,0.00,Acu-Link.com,2013-08-26 04:08:00,
2013-08-25 23:23:00,77.0,69.2,29.83,ESE,112,1.1,-999.0,77,-99.99,,,0.00,Acu-Link.com,2013-08-26 04:23:00,
2013-08-25 23:39:00,76.6,68.8,29.83,SSE,157,1.7,-999.0,77,-99.99,,,0.00,Acu-Link.com,2013-08-26 04:39:00,
2013-08-25 23:54:00,76.5,69.1,29.83,SSE,157,2.2,-999.0,78,-99.99,,,0.00,Acu-Link.com,2013-08-26 04:54:00,